createdAt,value
2023-06-11T00:00:13.133Z,2.80
2023-06-11T00:02:43.187Z,3.10
2023-06-11T00:05:11.814Z,3.17
2023-06-11T00:07:40.587Z,2.35
2023-06-11T00:10:09.696Z,2.75
2023-06-11T00:12:37.700Z,3.03
2023-06-11T00:15:05.544Z,3.28
2023-06-11T00:17:34.398Z,3.78
2023-06-11T00:20:04.413Z,3.13
2023-06-11T00:22:33.052Z,3.25
2023-06-11T00:25:00.661Z,3.67
2023-06-11T00:27:28.252Z,3.33
2023-06-11T00:29:56.278Z,3.65
2023-06-11T00:32:24.117Z,3.20
2023-06-11T00:34:51.723Z,3.45
2023-06-11T00:37:19.282Z,3.25
2023-06-11T00:39:46.889Z,3.53
2023-06-11T00:42:14.536Z,3.33
2023-06-11T00:44:42.718Z,3.40
2023-06-11T00:47:11.171Z,3.70
2023-06-11T00:49:38.817Z,3.40
2023-06-11T00:52:11.640Z,3.30
2023-06-11T00:54:39.500Z,3.53
2023-06-11T00:57:08.357Z,3.38
2023-06-11T00:59:36.859Z,3.83
2023-06-11T01:02:22.479Z,3.75
2023-06-11T01:04:54.420Z,3.45
2023-06-11T01:09:52.649Z,3.15
2023-06-11T01:12:20.273Z,3.17
2023-06-11T01:14:47.788Z,2.85
2023-06-11T01:17:43.186Z,4.00
2023-06-11T01:20:26.361Z,3.60
2023-06-11T01:23:32.539Z,3.63
2023-06-11T01:26:24.415Z,4.35
2023-06-11T01:28:57.428Z,3.80
2023-06-11T01:31:30.659Z,3.92
2023-06-11T01:33:59.316Z,4.68
2023-06-11T01:36:30.927Z,3.63
2023-06-11T01:38:59.944Z,3.58
2023-06-11T01:41:28.334Z,3.83
2023-06-11T01:43:56.089Z,3.88
2023-06-11T01:46:23.688Z,4.20
2023-06-11T01:48:51.285Z,4.50
2023-06-11T01:51:18.825Z,4.68
2023-06-11T01:53:46.380Z,3.85
2023-06-11T01:56:13.924Z,3.67
2023-06-11T01:58:41.494Z,4.13
2023-06-11T02:01:09.517Z,4.63
2023-06-11T02:03:37.151Z,4.60
2023-06-11T02:06:04.808Z,4.50
2023-06-11T02:08:32.344Z,5.03
2023-06-11T02:10:59.934Z,6.63
2023-06-11T02:13:31.844Z,5.38
2023-06-11T02:18:28.139Z,4.68
2023-06-11T02:20:55.721Z,5.97
2023-06-11T02:23:23.368Z,4.95
2023-06-11T02:25:50.913Z,5.30
2023-06-11T02:28:18.571Z,5.88
2023-06-11T02:30:46.151Z,7.32
2023-06-11T02:33:13.761Z,6.28
2023-06-11T02:35:41.363Z,5.43
2023-06-11T02:38:09.015Z,5.63
2023-06-11T02:40:36.577Z,5.13
2023-06-11T02:43:04.097Z,5.85
2023-06-11T02:45:31.667Z,5.55
2023-06-11T02:47:59.207Z,5.70
2023-06-11T02:50:26.733Z,5.97
2023-06-11T02:52:54.327Z,6.57
2023-06-11T02:55:21.889Z,5.35
2023-06-11T02:57:49.428Z,6.47
2023-06-11T03:00:17.185Z,5.22
2023-06-11T03:02:44.873Z,6.28
2023-06-11T03:05:12.695Z,5.88
2023-06-11T03:07:40.498Z,5.20
2023-06-11T03:10:08.634Z,6.05
2023-06-11T03:12:36.200Z,6.40
2023-06-11T03:15:04.377Z,7.10
2023-06-11T03:17:31.898Z,5.85
2023-06-11T03:19:59.498Z,6.43
2023-06-11T03:22:27.052Z,6.10
2023-06-11T03:24:54.573Z,6.63
2023-06-11T03:27:22.123Z,6.40
2023-06-11T03:29:49.722Z,6.30
2023-06-11T03:32:17.270Z,6.95
2023-06-11T03:34:44.948Z,6.45
2023-06-11T03:37:12.566Z,6.47
2023-06-11T03:39:40.121Z,6.93
2023-06-11T03:42:07.954Z,6.70
2023-06-11T03:44:35.496Z,6.22
2023-06-11T03:47:03.181Z,7.10
2023-06-11T03:49:30.798Z,6.80
2023-06-11T03:51:58.586Z,6.80
2023-06-11T03:54:26.176Z,6.55
2023-06-11T03:56:53.811Z,6.90
2023-06-11T03:59:21.397Z,7.07
2023-06-11T04:01:48.980Z,6.75
2023-06-11T04:04:16.583Z,6.18
2023-06-11T04:06:44.438Z,6.95
2023-06-11T04:09:11.996Z,7.47
2023-06-11T04:11:39.541Z,7.10
2023-06-11T04:14:08.010Z,6.43
2023-06-11T04:16:35.574Z,6.68
2023-06-11T04:19:03.194Z,7.15
2023-06-11T04:21:30.800Z,7.32
2023-06-11T04:23:58.484Z,7.00
2023-06-11T04:26:26.755Z,7.13
2023-06-11T04:28:54.511Z,7.22
2023-06-11T04:31:22.239Z,6.93
2023-06-11T04:33:52.155Z,6.38
2023-06-11T04:36:25.757Z,7.10
2023-06-11T04:38:53.798Z,6.78
2023-06-11T04:41:24.406Z,6.25
2023-06-11T04:43:53.368Z,6.13
2023-06-11T04:46:21.318Z,7.53
2023-06-11T04:48:51.518Z,6.20
2023-06-11T04:51:21.700Z,6.65
2023-06-11T04:53:53.340Z,7.63
2023-06-11T04:56:20.985Z,6.68
2023-06-11T04:58:50.448Z,6.88
2023-06-11T05:01:18.923Z,6.25
2023-06-11T05:03:48.989Z,5.60
2023-06-11T05:06:22.488Z,6.65
2023-06-11T05:08:50.102Z,6.10
2023-06-11T05:11:17.798Z,6.13
2023-06-11T05:13:45.451Z,5.82
2023-06-11T05:16:13.818Z,5.85
2023-06-11T05:18:41.437Z,6.72
2023-06-11T05:21:10.312Z,5.18
2023-06-11T05:23:40.263Z,5.35
2023-06-11T05:26:13.192Z,6.38
2023-06-11T05:28:41.351Z,6.97
2023-06-11T05:31:12.532Z,6.10
2023-06-11T05:33:40.103Z,6.43
2023-06-11T05:36:07.744Z,6.70
2023-06-11T05:38:35.298Z,5.80
2023-06-11T05:41:03.676Z,6.10
2023-06-11T05:43:31.242Z,5.80
2023-06-11T05:45:58.802Z,6.97
2023-06-11T05:48:28.860Z,6.18
2023-06-11T05:50:56.508Z,6.13
2023-06-11T05:53:24.090Z,6.38
2023-06-11T05:55:54.537Z,5.72
2023-06-11T05:58:23.350Z,5.40
2023-06-11T06:00:51.262Z,5.93
2023-06-11T06:03:19.015Z,6.28
2023-06-11T06:05:46.694Z,5.45
2023-06-11T06:08:14.229Z,6.03
2023-06-11T06:10:41.834Z,5.45
2023-06-11T06:13:09.382Z,5.53
2023-06-11T06:15:36.968Z,6.65
2023-06-11T06:18:05.684Z,4.93
2023-06-11T06:20:33.457Z,5.63
2023-06-11T06:23:00.998Z,6.30
2023-06-11T06:25:28.905Z,5.32
2023-06-11T06:27:56.496Z,6.32
2023-06-11T06:30:24.060Z,4.97
2023-06-11T06:32:51.762Z,5.82
2023-06-11T06:35:19.394Z,5.55
2023-06-11T06:37:47.069Z,6.30
2023-06-11T06:40:14.657Z,5.63
2023-06-11T06:42:42.167Z,5.72
2023-06-11T06:45:10.696Z,6.75
2023-06-11T06:47:38.627Z,4.88
2023-06-11T06:50:07.250Z,5.15
2023-06-11T06:52:34.912Z,4.82
2023-06-11T06:55:02.590Z,4.45
2023-06-11T06:57:30.128Z,4.63
2023-06-11T06:59:57.702Z,4.90
2023-06-11T07:02:25.247Z,4.55
2023-06-11T07:04:52.869Z,4.90
2023-06-11T07:07:20.453Z,5.07
2023-06-11T07:09:48.156Z,4.60
2023-06-11T07:12:15.801Z,5.15
2023-06-11T07:14:43.389Z,4.28
2023-06-11T07:17:10.948Z,5.18
2023-06-11T07:19:38.644Z,4.38
2023-06-11T07:22:09.015Z,4.15
2023-06-11T07:24:37.877Z,4.82
2023-06-11T07:27:06.007Z,4.80
2023-06-11T07:29:33.885Z,4.47
2023-06-11T07:32:01.537Z,4.80
2023-06-11T07:34:29.198Z,5.43
2023-06-11T07:36:56.817Z,5.28
2023-06-11T07:39:24.758Z,4.50
2023-06-11T07:41:52.412Z,4.40
2023-06-11T07:44:20.023Z,5.32
2023-06-11T07:46:47.631Z,5.43
2023-06-11T07:49:15.238Z,5.40
2023-06-11T07:51:43.536Z,4.93
2023-06-11T07:54:11.189Z,6.05
2023-06-11T07:56:38.736Z,4.53
2023-06-11T07:59:06.318Z,5.25
2023-06-11T08:01:33.909Z,6.45
2023-06-11T08:04:01.512Z,6.38
2023-06-11T08:06:29.196Z,4.90
2023-06-11T08:08:57.462Z,4.68
2023-06-11T08:11:25.471Z,6.07
2023-06-11T08:13:53.305Z,5.18
2023-06-11T08:16:21.064Z,4.60
2023-06-11T08:18:48.699Z,4.28
2023-06-11T08:21:17.548Z,5.28
2023-06-11T08:23:45.154Z,4.78
2023-06-11T08:26:13.434Z,4.93
2023-06-11T08:28:41.128Z,4.72
2023-06-11T08:31:08.725Z,5.03
2023-06-11T08:33:36.352Z,4.53
2023-06-11T08:36:04.426Z,4.65
2023-06-11T08:38:31.963Z,6.05
2023-06-11T08:40:59.526Z,5.00
2023-06-11T08:43:27.396Z,5.35
2023-06-11T08:45:55.036Z,4.78
2023-06-11T08:48:22.845Z,3.90
2023-06-11T08:50:51.742Z,4.32
2023-06-11T08:53:19.277Z,4.03
2023-06-11T08:55:46.996Z,4.30
2023-06-11T08:58:16.029Z,4.57
2023-06-11T09:00:46.594Z,4.90
2023-06-11T09:03:16.255Z,5.28
2023-06-11T09:05:46.306Z,4.30
2023-06-11T09:08:13.937Z,5.03
2023-06-11T09:10:52.182Z,4.38
2023-06-11T09:13:20.842Z,4.72
2023-06-11T09:15:53.959Z,4.35
2023-06-11T09:18:23.776Z,4.85
2023-06-11T09:20:53.577Z,4.13
2023-06-11T09:23:35.305Z,4.55
2023-06-11T09:26:04.268Z,4.30
2023-06-11T09:28:34.041Z,3.70
2023-06-11T09:31:04.432Z,3.97
2023-06-11T09:33:34.644Z,4.03
2023-06-11T09:36:02.736Z,4.82
2023-06-11T09:38:34.632Z,3.92
2023-06-11T09:41:02.576Z,4.28
2023-06-11T09:43:30.162Z,3.75
2023-06-11T09:45:57.860Z,4.57
2023-06-11T09:48:27.156Z,3.70
2023-06-11T09:50:55.845Z,3.50
2023-06-11T09:53:25.138Z,3.30
2023-06-11T09:58:24.623Z,3.22
2023-06-11T10:00:53.941Z,3.42
2023-06-11T10:03:21.928Z,3.28
2023-06-11T10:05:49.945Z,3.25
2023-06-11T10:08:24.567Z,4.40
2023-06-11T10:11:02.652Z,3.40
2023-06-11T10:13:31.976Z,3.60
2023-06-11T10:16:03.309Z,3.05
2023-06-11T10:21:06.359Z,3.05
2023-06-11T10:23:42.032Z,2.78
2023-06-11T10:26:11.750Z,2.97
2023-06-11T10:28:52.300Z,3.03
2023-06-11T10:31:31.515Z,3.17
2023-06-11T10:34:03.545Z,2.90
2023-06-11T10:36:36.538Z,2.80
2023-06-11T10:39:26.559Z,2.10
2023-06-11T10:42:06.968Z,2.47
2023-06-11T10:44:42.881Z,2.45
2023-06-11T10:47:10.548Z,2.92
2023-06-11T10:49:38.214Z,2.60
2023-06-11T10:52:06.460Z,3.55
2023-06-11T10:54:36.201Z,3.35
2023-06-11T10:57:05.010Z,3.47
2023-06-11T10:59:33.091Z,2.92
2023-06-11T11:02:00.829Z,2.63
2023-06-11T11:04:29.439Z,2.97
2023-06-11T11:07:09.229Z,3.70
2023-06-11T11:09:37.277Z,2.72
2023-06-11T11:12:05.271Z,2.85
2023-06-11T11:14:32.999Z,3.08
2023-06-11T11:17:02.595Z,2.33
2023-06-11T11:19:31.581Z,2.75
2023-06-11T11:21:59.212Z,3.10
2023-06-11T11:24:26.866Z,2.75
2023-06-11T11:26:54.440Z,2.65
2023-06-11T11:29:22.047Z,2.95
2023-06-11T11:31:49.970Z,2.50
2023-06-11T11:34:19.363Z,3.22
2023-06-11T11:36:47.736Z,3.38
2023-06-11T11:39:16.670Z,3.03
2023-06-11T11:41:50.376Z,2.42
2023-06-11T11:44:19.213Z,2.00
2023-06-11T11:46:46.907Z,2.10
2023-06-11T11:49:14.827Z,2.42
2023-06-11T11:51:46.740Z,2.72
2023-06-11T11:54:15.920Z,2.80
2023-06-11T11:56:43.792Z,2.63
2023-06-11T11:59:24.654Z,2.78
2023-06-11T12:02:02.040Z,2.40
2023-06-11T12:04:52.586Z,2.42
2023-06-11T12:09:48.990Z,2.10
2023-06-11T12:12:16.553Z,2.40
2023-06-11T12:14:44.140Z,2.60
2023-06-11T12:17:12.394Z,2.45
2023-06-11T12:19:40.344Z,2.80
2023-06-11T12:22:08.235Z,2.47
2023-06-11T12:24:37.492Z,2.05
2023-06-11T12:27:09.510Z,2.97
2023-06-11T12:29:39.876Z,2.75
2023-06-11T12:32:14.446Z,2.67
2023-06-11T12:34:42.122Z,2.45
2023-06-11T12:37:11.372Z,2.60
2023-06-11T12:39:38.955Z,2.38
2023-06-11T12:42:07.586Z,2.30
2023-06-11T12:44:35.146Z,2.10
2023-06-11T12:47:02.743Z,1.70
2023-06-11T12:49:32.552Z,2.42
2023-06-11T12:52:01.117Z,1.73
2023-06-11T12:54:28.774Z,1.77
2023-06-11T12:56:56.478Z,2.10
2023-06-11T12:59:24.420Z,1.50
2023-06-11T13:01:52.554Z,1.48
2023-06-11T13:04:20.263Z,1.70
2023-06-11T13:06:47.812Z,1.40
2023-06-11T13:09:15.945Z,1.55
2023-06-11T13:11:44.072Z,1.50
2023-06-11T13:14:11.823Z,1.40
2023-06-11T13:16:39.352Z,1.20
2023-06-11T13:19:06.858Z,1.70
2023-06-11T13:21:34.493Z,1.30
2023-06-11T13:24:04.556Z,1.60
2023-06-11T13:26:33.512Z,1.50
2023-06-11T13:29:01.053Z,1.60
2023-06-11T13:31:28.703Z,1.60
2023-06-11T13:33:56.371Z,1.90
2023-06-11T13:36:24.337Z,1.23
2023-06-11T13:38:52.058Z,1.45
2023-06-11T13:41:19.659Z,1.48
2023-06-11T13:43:47.210Z,1.60
2023-06-11T13:46:14.943Z,1.60
2023-06-11T13:48:42.603Z,1.50
2023-06-11T13:51:11.291Z,2.00
2023-06-11T13:53:39.010Z,1.45
2023-06-11T13:56:06.598Z,1.77
2023-06-11T13:58:34.194Z,1.30
2023-06-11T14:01:02.111Z,1.73
2023-06-11T14:03:29.785Z,1.83
2023-06-11T14:05:57.394Z,1.33
2023-06-11T14:08:25.047Z,1.40
2023-06-11T14:10:53.882Z,1.40
2023-06-11T14:13:21.626Z,1.38
2023-06-11T14:15:49.237Z,1.52
2023-06-11T14:18:16.886Z,1.30
2023-06-11T14:20:44.483Z,1.50
2023-06-11T14:23:12.139Z,1.63
2023-06-11T14:25:41.121Z,1.35
2023-06-11T14:28:08.675Z,1.50
2023-06-11T14:30:36.276Z,1.67
2023-06-11T14:33:03.890Z,1.58
2023-06-11T14:35:31.505Z,1.30
2023-06-11T14:38:01.365Z,1.70
2023-06-11T14:40:30.761Z,1.60
2023-06-11T14:42:58.714Z,2.15
2023-06-11T14:45:26.330Z,1.80
2023-06-11T14:47:53.924Z,1.67
2023-06-11T14:50:21.853Z,2.13
2023-06-11T14:52:49.611Z,1.50
2023-06-11T14:55:17.341Z,2.00
2023-06-11T14:57:44.938Z,1.48
2023-06-11T15:00:13.312Z,1.80
2023-06-11T15:02:41.170Z,1.58
2023-06-11T15:05:09.295Z,1.55
2023-06-11T15:07:36.822Z,1.48
2023-06-11T15:10:05.961Z,1.67
2023-06-11T15:12:33.667Z,2.15
2023-06-11T15:15:02.229Z,1.70
2023-06-11T15:17:30.975Z,1.55
2023-06-11T15:19:59.976Z,1.77
2023-06-11T15:22:27.976Z,1.42
2023-06-11T15:24:56.093Z,1.60
2023-06-11T15:27:23.734Z,1.60
2023-06-11T15:29:51.309Z,1.40
2023-06-11T15:32:21.018Z,1.80
2023-06-11T15:34:49.277Z,2.63
2023-06-11T15:37:16.918Z,2.15
2023-06-11T15:39:51.803Z,1.80
2023-06-11T15:42:20.200Z,2.10
2023-06-11T15:44:49.651Z,2.05
2023-06-11T15:47:17.937Z,2.22
2023-06-11T15:49:45.569Z,1.92
2023-06-11T15:52:13.175Z,1.92
2023-06-11T15:54:41.048Z,2.50
2023-06-11T15:57:08.967Z,1.90
2023-06-11T15:59:36.788Z,1.95
2023-06-11T16:02:04.511Z,1.83
2023-06-11T16:04:32.977Z,1.90
2023-06-11T16:07:01.363Z,2.55
2023-06-11T16:09:29.690Z,2.17
2023-06-11T16:11:57.460Z,2.58
2023-06-11T16:14:25.068Z,2.25
2023-06-11T16:16:52.706Z,2.13
2023-06-11T16:19:20.600Z,2.85
2023-06-11T16:21:48.183Z,2.00
2023-06-11T16:24:15.843Z,2.35
2023-06-11T16:26:43.615Z,2.03
2023-06-11T16:29:11.515Z,2.13
2023-06-11T16:31:41.865Z,2.03
2023-06-11T16:34:11.177Z,1.90
2023-06-11T16:36:38.759Z,2.80
2023-06-11T16:39:21.871Z,2.35
2023-06-11T16:41:53.917Z,2.63
2023-06-11T16:44:21.536Z,2.40
2023-06-11T16:46:49.284Z,2.38
2023-06-11T16:49:18.709Z,2.33
2023-06-11T16:51:46.783Z,2.45
2023-06-11T16:54:17.387Z,2.17
2023-06-11T16:56:46.285Z,2.30
2023-06-11T16:59:13.814Z,2.40
2023-06-11T17:01:41.425Z,2.25
2023-06-11T17:04:09.061Z,2.40
2023-06-11T17:06:36.720Z,2.38
2023-06-11T17:09:04.521Z,2.83
2023-06-11T17:11:32.204Z,2.03
2023-06-11T17:13:59.803Z,3.33
2023-06-11T17:16:27.434Z,2.20
2023-06-11T17:18:57.402Z,3.05
2023-06-11T17:21:26.793Z,3.17
2023-06-11T17:23:58.225Z,2.80
2023-06-11T17:26:28.088Z,2.83
2023-06-11T17:28:55.746Z,2.70
2023-06-11T17:31:23.403Z,3.45
2023-06-11T17:33:51.037Z,2.42
2023-06-11T17:36:18.709Z,2.72
2023-06-11T17:38:46.276Z,2.75
2023-06-11T17:41:13.896Z,2.38
2023-06-11T17:43:41.468Z,3.08
2023-06-11T17:46:12.617Z,2.63
2023-06-11T17:48:40.375Z,3.47
2023-06-11T17:51:07.933Z,3.40
2023-06-11T17:53:35.490Z,3.00
2023-06-11T17:56:03.083Z,4.57
2023-06-11T17:58:30.635Z,2.90
2023-06-11T18:00:58.262Z,2.90
2023-06-11T18:03:25.868Z,3.42
2023-06-11T18:05:53.503Z,2.75
2023-06-11T18:08:21.081Z,3.60
2023-06-11T18:10:48.644Z,3.00
2023-06-11T18:13:16.300Z,3.05
2023-06-11T18:15:44.136Z,2.72
2023-06-11T18:18:12.278Z,3.22
2023-06-11T18:20:39.919Z,3.30
2023-06-11T18:23:07.541Z,3.10
2023-06-11T18:25:35.209Z,3.25
2023-06-11T18:28:02.861Z,3.30
2023-06-11T18:30:30.440Z,3.28
2023-06-11T18:32:57.994Z,3.42
2023-06-11T18:35:25.721Z,3.65
2023-06-11T18:37:53.308Z,3.97
2023-06-11T18:40:20.959Z,3.40
2023-06-11T18:42:48.560Z,3.38
2023-06-11T18:45:16.587Z,4.43
2023-06-11T18:47:44.197Z,2.65
2023-06-11T18:50:12.429Z,3.60
2023-06-11T18:52:40.490Z,3.50
2023-06-11T18:55:08.425Z,3.53
2023-06-11T18:57:36.110Z,3.42
2023-06-11T19:00:04.551Z,3.70
2023-06-11T19:02:32.171Z,4.03
2023-06-11T19:05:00.354Z,3.45
2023-06-11T19:07:27.976Z,3.65
2023-06-11T19:09:56.065Z,3.85
2023-06-11T19:12:23.900Z,3.65
2023-06-11T19:14:51.738Z,3.50
2023-06-11T19:17:19.700Z,3.65
2023-06-11T19:19:47.308Z,2.95
2023-06-11T19:22:14.920Z,4.25
2023-06-11T19:24:42.577Z,4.35
2023-06-11T19:27:10.134Z,3.95
2023-06-11T19:29:37.706Z,3.72
2023-06-11T19:32:05.621Z,3.80
2023-06-11T19:34:33.208Z,4.43
2023-06-11T19:37:00.793Z,4.38
2023-06-11T19:39:28.315Z,4.30
2023-06-11T19:41:55.880Z,3.85
2023-06-11T19:44:23.570Z,3.95
2023-06-11T19:46:51.168Z,4.90
2023-06-11T19:49:18.707Z,3.45
2023-06-11T19:51:46.291Z,3.75
2023-06-11T19:54:14.957Z,4.72
2023-06-11T19:56:43.600Z,3.55
2023-06-11T19:59:15.046Z,3.83
2023-06-11T20:01:42.820Z,3.72
2023-06-11T20:04:10.637Z,3.78
2023-06-11T20:06:38.185Z,4.50
2023-06-11T20:09:06.697Z,4.25
2023-06-11T20:11:34.715Z,4.00
2023-06-11T20:14:02.432Z,3.65
2023-06-11T20:16:30.049Z,3.90
2023-06-11T20:18:57.689Z,3.95
2023-06-11T20:21:25.483Z,4.30
2023-06-11T20:23:53.112Z,3.92
2023-06-11T20:26:20.698Z,3.22
2023-06-11T20:28:48.250Z,3.58
2023-06-11T20:31:15.828Z,3.90
2023-06-11T20:33:43.386Z,3.90
2023-06-11T20:36:10.928Z,3.55
2023-06-11T20:38:38.428Z,3.35
2023-06-11T20:41:06.254Z,3.80
2023-06-11T20:43:33.769Z,2.67
2023-06-11T20:46:08.577Z,3.33
2023-06-11T20:48:39.612Z,3.72
2023-06-11T20:51:07.227Z,2.85
2023-06-11T20:53:35.007Z,2.67
2023-06-11T20:56:03.680Z,2.72
2023-06-11T20:58:31.418Z,3.53
2023-06-11T21:00:59.061Z,3.28
2023-06-11T21:03:26.669Z,2.72
2023-06-11T21:05:55.647Z,3.72
2023-06-11T21:08:23.287Z,2.50
2023-06-11T21:10:50.940Z,4.07
2023-06-11T21:13:18.667Z,3.00
2023-06-11T21:15:46.252Z,3.92
2023-06-11T21:18:13.821Z,3.17
2023-06-11T21:20:41.452Z,3.60
2023-06-11T21:23:09.077Z,2.95
2023-06-11T21:25:36.652Z,3.60
2023-06-11T21:28:04.378Z,3.00
2023-06-11T21:30:31.895Z,2.85
2023-06-11T21:32:59.468Z,2.97
2023-06-11T21:35:27.075Z,3.22
2023-06-11T21:37:54.671Z,3.25
2023-06-11T21:40:22.329Z,3.47
2023-06-11T21:42:49.880Z,2.83
2023-06-11T21:45:17.523Z,2.65
2023-06-11T21:47:45.103Z,3.45
2023-06-11T21:50:14.147Z,3.38
2023-06-11T21:52:42.339Z,2.92
2023-06-11T21:55:10.163Z,3.10
2023-06-11T21:57:37.833Z,3.22
2023-06-11T22:00:12.596Z,2.95
2023-06-11T22:02:42.519Z,3.42
2023-06-11T22:05:13.311Z,2.72
2023-06-11T22:07:41.690Z,3.30
2023-06-11T22:10:10.436Z,2.55
2023-06-11T22:12:42.872Z,3.10
2023-06-11T22:15:14.266Z,2.70
2023-06-11T22:17:42.012Z,3.23
2023-06-11T22:20:11.825Z,2.53
2023-06-11T22:22:42.036Z,2.70
2023-06-11T22:25:11.980Z,2.42
2023-06-11T22:27:41.981Z,2.17
2023-06-11T22:30:11.933Z,2.78
2023-06-11T22:32:39.924Z,2.22
2023-06-11T22:35:07.951Z,2.40
2023-06-11T22:37:36.984Z,1.92
2023-06-11T22:40:07.009Z,2.00
2023-06-11T22:42:35.153Z,2.22
2023-06-11T22:45:02.908Z,2.83
2023-06-11T22:47:33.943Z,2.30
2023-06-11T22:50:02.129Z,2.60
2023-06-11T22:52:30.853Z,2.35
2023-06-11T22:54:58.768Z,2.42
2023-06-11T22:57:26.436Z,2.15
2023-06-11T22:59:53.995Z,1.98
2023-06-11T23:02:21.691Z,2.10
2023-06-11T23:04:51.368Z,2.05
2023-06-11T23:07:19.299Z,2.17
2023-06-11T23:09:46.893Z,2.45
2023-06-11T23:12:14.669Z,1.83
2023-06-11T23:14:42.233Z,2.47
2023-06-11T23:17:10.328Z,1.85
2023-06-11T23:19:38.587Z,1.92
2023-06-11T23:22:08.753Z,2.13
2023-06-11T23:24:40.757Z,2.35
2023-06-11T23:29:38.433Z,1.80
2023-06-11T23:32:06.830Z,1.92
2023-06-11T23:34:35.078Z,1.80
2023-06-11T23:37:02.626Z,2.38
2023-06-11T23:39:30.515Z,1.80
2023-06-11T23:41:58.024Z,2.13
2023-06-11T23:44:25.550Z,2.03
2023-06-11T23:46:53.095Z,2.70
2023-06-11T23:49:20.650Z,3.00
2023-06-11T23:51:48.452Z,2.30
2023-06-11T23:54:16.135Z,2.03
2023-06-11T23:56:43.759Z,1.80
2023-06-11T23:59:11.725Z,2.17
